createdAt,value
2018-11-14T00:01:30.676Z,9.00
2018-11-14T00:03:58.803Z,10.32
2018-11-14T00:06:27.218Z,6.50
2018-11-14T00:08:55.206Z,5.78
2018-11-14T00:11:24.279Z,4.92
2018-11-14T00:13:52.258Z,5.35
2018-11-14T00:16:20.152Z,4.70
2018-11-14T00:18:49.092Z,5.97
2018-11-14T00:21:16.870Z,6.08
2018-11-14T00:23:44.823Z,5.75
2018-11-14T00:26:12.875Z,5.55
2018-11-14T00:28:40.843Z,6.15
2018-11-14T00:31:09.586Z,4.55
2018-11-14T00:33:37.362Z,9.53
2018-11-14T00:36:05.360Z,6.00
2018-11-14T00:38:32.981Z,8.35
2018-11-14T00:41:00.605Z,7.92
2018-11-14T00:43:28.293Z,9.48
2018-11-14T00:45:56.184Z,6.10
2018-11-14T00:48:24.503Z,7.80
2018-11-14T00:50:52.806Z,6.60
2018-11-14T00:53:20.552Z,6.08
2018-11-14T00:55:48.251Z,7.95
2018-11-14T00:58:16.234Z,8.98
2018-11-14T01:00:44.007Z,7.92
2018-11-14T01:03:11.692Z,9.03
2018-11-14T01:05:39.352Z,7.53
2018-11-14T01:08:08.058Z,4.28
2018-11-14T01:10:36.326Z,3.98
2018-11-14T01:13:04.042Z,5.40
2018-11-14T01:15:32.191Z,8.30
2018-11-14T01:17:59.900Z,5.80
2018-11-14T01:20:27.552Z,9.48
2018-11-14T01:22:55.251Z,5.42
2018-11-14T01:25:22.900Z,5.10
2018-11-14T01:27:51.423Z,6.97
2018-11-14T01:30:22.238Z,8.13
2018-11-14T01:32:50.632Z,8.10
2018-11-14T01:35:19.490Z,9.25
2018-11-14T01:37:47.530Z,5.60
2018-11-14T01:40:18.908Z,5.33
2018-11-14T01:42:48.556Z,7.00
2018-11-14T01:45:16.195Z,8.55
2018-11-14T01:47:44.058Z,7.62
2018-11-14T01:50:12.015Z,6.05
2018-11-14T01:52:39.872Z,4.90
2018-11-14T01:55:09.674Z,5.20
2018-11-14T01:57:37.406Z,6.80
2018-11-14T02:00:09.009Z,8.75
2018-11-14T02:02:37.419Z,4.62
2018-11-14T02:05:07.341Z,7.22
2018-11-14T02:07:35.767Z,5.28
2018-11-14T02:10:04.980Z,4.20
2018-11-14T02:12:32.714Z,6.08
2018-11-14T02:15:00.394Z,7.00
2018-11-14T02:17:27.990Z,7.25
2018-11-14T02:19:55.800Z,4.70
2018-11-14T02:22:23.498Z,5.12
2018-11-14T02:24:52.126Z,4.15
2018-11-14T02:27:19.877Z,4.28
2018-11-14T02:29:47.637Z,4.47
2018-11-14T02:32:16.085Z,5.28
2018-11-14T02:34:43.705Z,7.95
2018-11-14T02:37:11.387Z,4.67
2018-11-14T02:39:39.678Z,4.90
2018-11-14T02:42:07.492Z,4.22
2018-11-14T02:44:35.229Z,5.70
2018-11-14T02:47:03.117Z,6.05
2018-11-14T02:49:31.420Z,7.75
2018-11-14T02:51:59.626Z,4.40
2018-11-14T02:54:27.349Z,5.87
2018-11-14T02:56:55.118Z,7.60
2018-11-14T02:59:23.337Z,6.05
2018-11-14T03:01:51.050Z,9.70
2018-11-14T03:04:18.712Z,7.97
2018-11-14T03:06:46.352Z,5.50
2018-11-14T03:09:14.355Z,7.50
2018-11-14T03:11:42.057Z,6.47
2018-11-14T03:14:10.237Z,6.22
2018-11-14T03:16:37.902Z,6.00
2018-11-14T03:19:06.831Z,6.17
2018-11-14T03:21:34.402Z,8.58
2018-11-14T03:24:03.075Z,7.40
2018-11-14T03:26:30.834Z,12.30
2018-11-14T03:28:58.646Z,5.58
2018-11-14T03:31:27.086Z,5.17
2018-11-14T03:33:54.782Z,4.97
2018-11-14T03:36:22.768Z,5.67
2018-11-14T03:38:50.565Z,6.40
2018-11-14T03:41:19.633Z,5.10
2018-11-14T03:43:47.330Z,5.08
2018-11-14T03:46:15.513Z,5.70
2018-11-14T03:48:43.939Z,6.22
2018-11-14T03:51:11.756Z,6.62
2018-11-14T03:53:39.408Z,6.22
2018-11-14T03:56:07.818Z,6.80
2018-11-14T03:58:35.505Z,10.20
2018-11-14T04:01:03.270Z,8.05
2018-11-14T04:03:31.383Z,6.72
2018-11-14T04:05:59.875Z,13.28
2018-11-14T04:08:27.830Z,9.65
2018-11-14T04:10:55.494Z,7.97
2018-11-14T04:13:23.209Z,7.75
2018-11-14T04:15:50.845Z,11.45
2018-11-14T04:18:18.512Z,10.08
2018-11-14T04:20:46.251Z,6.60
2018-11-14T04:23:14.026Z,7.53
2018-11-14T04:25:42.947Z,14.15
2018-11-14T04:28:10.697Z,13.03
2018-11-14T04:30:38.281Z,10.95
2018-11-14T04:33:05.965Z,7.65
2018-11-14T04:35:33.781Z,6.83
2018-11-14T04:38:01.532Z,11.83
2018-11-14T04:40:29.371Z,6.92
2018-11-14T04:42:57.222Z,7.42
2018-11-14T04:45:26.244Z,10.70
2018-11-14T04:47:55.168Z,9.13
2018-11-14T04:50:24.110Z,10.85
2018-11-14T04:52:52.411Z,12.28
2018-11-14T04:55:21.954Z,11.05
2018-11-14T04:57:50.021Z,11.57
2018-11-14T05:00:19.067Z,18.10
2018-11-14T05:02:47.561Z,11.40
2018-11-14T05:05:16.730Z,13.83
2018-11-14T05:07:44.436Z,13.32
2018-11-14T05:10:14.575Z,11.95
2018-11-14T05:12:42.482Z,13.48
2018-11-14T05:15:11.902Z,10.90
2018-11-14T05:17:41.065Z,12.13
2018-11-14T05:20:10.698Z,12.90
2018-11-14T05:22:38.572Z,9.80
2018-11-14T05:25:06.572Z,8.60
2018-11-14T05:27:34.389Z,11.70
2018-11-14T05:30:02.177Z,11.22
2018-11-14T05:32:29.872Z,10.72
2018-11-14T05:34:57.471Z,12.68
2018-11-14T05:37:25.181Z,11.73
2018-11-14T05:39:53.687Z,13.72
2018-11-14T05:42:21.725Z,14.55
2018-11-14T05:44:49.973Z,11.73
2018-11-14T05:47:17.730Z,9.80
2018-11-14T05:49:45.573Z,10.90
2018-11-14T05:52:13.344Z,12.90
2018-11-14T05:54:41.001Z,12.53
2018-11-14T05:57:08.832Z,13.43
2018-11-14T05:59:37.167Z,10.70
2018-11-14T06:02:05.571Z,10.90
2018-11-14T06:04:33.279Z,9.88
2018-11-14T06:07:01.102Z,9.70
2018-11-14T06:09:29.500Z,13.32
2018-11-14T06:11:57.918Z,13.25
2018-11-14T06:14:25.552Z,13.88
2018-11-14T06:16:53.935Z,16.57
2018-11-14T06:19:21.946Z,15.53
2018-11-14T06:21:50.394Z,29.05
2018-11-14T06:24:18.206Z,20.43
2018-11-14T06:26:46.137Z,23.15
2018-11-14T06:29:14.257Z,18.37
2018-11-14T06:31:42.662Z,25.40
2018-11-14T06:34:11.112Z,24.65
2018-11-14T06:36:38.950Z,23.45
2018-11-14T06:39:10.013Z,27.45
2018-11-14T06:41:37.848Z,26.75
2018-11-14T06:44:06.772Z,27.58
2018-11-14T06:46:34.998Z,28.65
2018-11-14T06:49:02.856Z,28.83
2018-11-14T06:51:30.765Z,20.40
2018-11-14T06:53:58.976Z,23.60
2018-11-14T06:56:26.719Z,21.17
2018-11-14T06:58:55.162Z,17.12
2018-11-14T07:01:23.318Z,24.98
2018-11-14T07:03:51.581Z,22.48
2018-11-14T07:06:19.858Z,22.67
2018-11-14T07:08:47.542Z,26.30
2018-11-14T07:11:16.178Z,22.25
2018-11-14T07:13:44.074Z,19.42
2018-11-14T07:16:12.659Z,24.92
2018-11-14T07:18:41.910Z,23.15
2018-11-14T07:21:09.717Z,20.12
2018-11-14T07:23:37.486Z,21.25
2018-11-14T07:26:05.678Z,21.23
2018-11-14T07:28:33.928Z,20.15
2018-11-14T07:31:02.332Z,22.58
2018-11-14T07:33:30.485Z,17.12
2018-11-14T07:35:58.127Z,18.12
2018-11-14T07:38:38.606Z,21.20
2018-11-14T07:41:07.985Z,22.67
2018-11-14T07:43:36.554Z,22.85
2018-11-14T07:46:04.619Z,22.65
2018-11-14T07:48:32.670Z,20.82
2018-11-14T07:51:01.082Z,20.90
2018-11-14T07:53:29.332Z,19.50
2018-11-14T07:55:58.370Z,22.65
2018-11-14T07:58:26.055Z,23.30
2018-11-14T08:00:54.588Z,17.42
2018-11-14T08:03:23.284Z,39.23
2018-11-14T08:05:51.105Z,25.10
2018-11-14T08:08:19.208Z,24.05
2018-11-14T08:10:46.885Z,39.00
2018-11-14T08:13:15.011Z,26.73
2018-11-14T08:15:43.210Z,33.63
2018-11-14T08:18:11.618Z,22.65
2018-11-14T08:20:39.231Z,26.68
2018-11-14T08:23:06.958Z,25.25
2018-11-14T08:25:34.739Z,23.80
2018-11-14T08:28:02.459Z,21.50
2018-11-14T08:30:30.291Z,25.00
2018-11-14T08:32:59.074Z,24.87
2018-11-14T08:35:26.811Z,22.77
2018-11-14T08:37:55.133Z,29.18
2018-11-14T08:40:23.336Z,21.85
2018-11-14T08:42:51.099Z,18.25
2018-11-14T08:45:18.766Z,21.82
2018-11-14T08:47:47.793Z,20.82
2018-11-14T08:50:16.146Z,19.42
2018-11-14T08:52:44.831Z,22.15
2018-11-14T08:55:13.395Z,22.55
2018-11-14T08:57:42.489Z,20.95
2018-11-14T09:00:17.190Z,19.65
2018-11-14T09:02:45.671Z,19.40
2018-11-14T09:05:13.673Z,22.52
2018-11-14T09:07:41.527Z,23.73
2018-11-14T09:10:20.497Z,25.52
2018-11-14T09:12:48.670Z,19.82
2018-11-14T09:15:18.132Z,19.35
2018-11-14T09:17:46.094Z,16.10
2018-11-14T09:20:16.269Z,18.20
2018-11-14T09:22:44.405Z,16.05
2018-11-14T09:25:16.611Z,22.20
2018-11-14T09:27:44.939Z,13.65
2018-11-14T09:30:15.909Z,15.38
2018-11-14T09:32:43.591Z,14.53
2018-11-14T09:35:12.567Z,14.50
2018-11-14T09:37:41.603Z,18.65
2018-11-14T09:40:11.038Z,14.13
2018-11-14T09:42:39.308Z,10.72
2018-11-14T09:45:11.282Z,9.35
2018-11-14T09:47:39.633Z,8.38
2018-11-14T09:50:09.853Z,9.60
2018-11-14T09:52:37.475Z,9.75
2018-11-14T09:55:07.025Z,8.43
2018-11-14T09:57:34.963Z,11.88
2018-11-14T10:00:03.148Z,10.72
2018-11-14T10:02:30.941Z,9.93
2018-11-14T10:04:58.643Z,9.65
2018-11-14T10:07:26.266Z,7.37
2018-11-14T10:09:54.652Z,9.25
2018-11-14T10:12:22.487Z,12.18
2018-11-14T10:14:50.976Z,8.53
2018-11-14T10:17:18.631Z,10.05
2018-11-14T10:19:47.002Z,9.68
2018-11-14T10:22:14.925Z,8.00
2018-11-14T10:24:42.684Z,8.48
2018-11-14T10:27:10.319Z,8.50
2018-11-14T10:29:38.035Z,15.53
2018-11-14T10:32:05.800Z,10.85
2018-11-14T10:34:33.657Z,17.98
2018-11-14T10:37:01.390Z,14.30
2018-11-14T10:39:29.181Z,19.40
2018-11-14T10:41:56.846Z,16.55
2018-11-14T10:44:24.683Z,15.23
2018-11-14T10:46:52.594Z,13.93
2018-11-14T10:49:20.334Z,16.00
2018-11-14T10:51:48.138Z,15.05
2018-11-14T10:54:16.123Z,15.08
2018-11-14T10:56:44.726Z,15.72
2018-11-14T10:59:12.382Z,13.50
2018-11-14T11:01:46.022Z,16.62
2018-11-14T11:04:19.532Z,15.23
2018-11-14T11:06:52.897Z,19.20
2018-11-14T11:09:26.477Z,17.55
2018-11-14T11:11:59.786Z,19.05
2018-11-14T11:14:34.858Z,16.37
2018-11-14T11:17:08.362Z,15.68
2018-11-14T11:19:37.018Z,16.75
2018-11-14T11:22:05.082Z,13.45
2018-11-14T11:24:32.734Z,14.03
2018-11-14T11:27:00.409Z,13.62
2018-11-14T11:29:28.162Z,14.20
2018-11-14T11:31:55.842Z,14.98
2018-11-14T11:34:24.884Z,19.60
2018-11-14T11:36:52.655Z,12.50
2018-11-14T11:39:20.398Z,13.13
2018-11-14T11:41:49.570Z,12.88
2018-11-14T11:44:17.832Z,12.20
2018-11-14T11:46:46.125Z,9.25
2018-11-14T11:49:14.373Z,12.55
2018-11-14T11:51:42.254Z,11.57
2018-11-14T11:54:09.948Z,10.40
2018-11-14T11:56:37.983Z,9.00
2018-11-14T11:59:06.535Z,11.48
2018-11-14T12:01:34.480Z,11.90
2018-11-14T12:04:02.274Z,18.80
2018-11-14T12:06:30.334Z,14.18
2018-11-14T12:08:58.187Z,15.43
2018-11-14T12:11:26.017Z,14.05
2018-11-14T12:13:53.971Z,14.35
2018-11-14T12:16:22.451Z,13.80
2018-11-14T12:18:50.443Z,21.82
2018-11-14T12:21:18.927Z,13.95
2018-11-14T12:23:46.951Z,13.43
2018-11-14T12:26:14.539Z,13.70
2018-11-14T12:28:42.378Z,13.50
2018-11-14T12:31:10.249Z,13.35
2018-11-14T12:33:38.357Z,15.00
2018-11-14T12:36:06.238Z,14.25
2018-11-14T12:38:34.160Z,15.30
2018-11-14T12:41:02.390Z,13.95
2018-11-14T12:43:30.294Z,14.33
2018-11-14T12:45:58.140Z,14.90
2018-11-14T12:48:25.819Z,15.15
2018-11-14T12:50:53.609Z,13.40
2018-11-14T12:53:21.271Z,12.60
2018-11-14T12:55:49.726Z,13.30
2018-11-14T12:58:17.568Z,14.47
2018-11-14T13:00:45.346Z,14.73
2018-11-14T13:03:13.910Z,13.38
2018-11-14T13:05:41.610Z,14.00
2018-11-14T13:08:09.378Z,14.33
2018-11-14T13:10:37.800Z,14.45
2018-11-14T13:13:05.585Z,16.10
2018-11-14T13:15:33.288Z,17.00
2018-11-14T13:18:01.027Z,15.95
2018-11-14T13:20:28.891Z,18.23
2018-11-14T13:22:56.921Z,22.05
2018-11-14T13:25:24.598Z,22.50
2018-11-14T13:27:52.494Z,21.27
2018-11-14T13:30:22.642Z,20.50
2018-11-14T13:32:51.836Z,20.15
2018-11-14T13:35:20.579Z,21.40
2018-11-14T13:37:49.263Z,24.12
2018-11-14T13:40:17.165Z,18.95
2018-11-14T13:42:45.305Z,19.60
2018-11-14T13:45:14.305Z,25.02
2018-11-14T13:47:42.337Z,21.33
2018-11-14T13:50:19.090Z,18.92
2018-11-14T13:52:46.928Z,18.27
2018-11-14T13:55:16.319Z,17.80
2018-11-14T13:57:45.420Z,17.32
2018-11-14T14:00:14.973Z,18.85
2018-11-14T14:02:43.979Z,17.45
2018-11-14T14:05:15.144Z,17.30
2018-11-14T14:07:42.854Z,18.05
2018-11-14T14:10:12.712Z,18.12
2018-11-14T14:12:41.841Z,24.40
2018-11-14T14:15:12.446Z,19.87
2018-11-14T14:17:40.476Z,24.30
2018-11-14T14:20:09.421Z,22.40
2018-11-14T14:22:37.198Z,25.30
2018-11-14T14:25:06.787Z,24.55
2018-11-14T14:27:34.458Z,25.25
2018-11-14T14:30:02.557Z,30.02
2018-11-14T14:32:31.683Z,27.67
2018-11-14T14:34:59.442Z,26.80
2018-11-14T14:37:27.202Z,23.67
2018-11-14T14:39:55.027Z,28.35
2018-11-14T14:42:22.794Z,25.65
2018-11-14T14:44:51.801Z,27.32
2018-11-14T14:47:19.632Z,23.70
2018-11-14T14:49:47.572Z,30.40
2018-11-14T14:52:15.804Z,31.40
2018-11-14T14:54:44.150Z,32.58
2018-11-14T14:57:11.991Z,33.28
2018-11-14T14:59:39.876Z,33.33
2018-11-14T15:02:07.684Z,33.65
2018-11-14T15:04:35.378Z,35.85
2018-11-14T15:07:03.482Z,34.48
2018-11-14T15:09:31.262Z,38.23
2018-11-14T15:11:59.741Z,32.90
2018-11-14T15:14:27.641Z,39.18
2018-11-14T15:16:55.407Z,40.00
2018-11-14T15:19:23.308Z,40.15
2018-11-14T15:21:51.147Z,39.63
2018-11-14T15:24:18.936Z,33.13
2018-11-14T15:26:46.641Z,44.10
2018-11-14T15:29:15.064Z,51.70
2018-11-14T15:31:42.750Z,49.23
2018-11-14T15:34:10.492Z,60.52
2018-11-14T15:36:38.271Z,57.33
2018-11-14T15:39:10.130Z,51.37
2018-11-14T15:41:38.000Z,56.30
2018-11-14T15:44:05.733Z,58.00
2018-11-14T15:46:33.479Z,64.53
2018-11-14T15:49:01.471Z,102.35
2018-11-14T15:51:29.409Z,56.45
2018-11-14T15:53:57.835Z,75.17
2018-11-14T15:56:25.880Z,93.92
2018-11-14T15:58:54.340Z,76.70
2018-11-14T16:01:22.418Z,92.53
2018-11-14T16:03:50.166Z,53.55
2018-11-14T16:06:18.030Z,66.97
2018-11-14T16:08:45.976Z,58.10
2018-11-14T16:11:14.681Z,54.35
2018-11-14T16:13:47.188Z,58.28
2018-11-14T16:16:14.979Z,54.45
2018-11-14T16:18:42.811Z,76.02
2018-11-14T16:21:10.589Z,54.95
2018-11-14T16:23:38.469Z,72.30
2018-11-14T16:26:06.311Z,92.67
2018-11-14T16:28:33.971Z,71.80
2018-11-14T16:31:01.830Z,85.83
2018-11-14T16:33:30.785Z,58.55
2018-11-14T16:35:59.741Z,68.28
2018-11-14T16:38:27.949Z,59.73
2018-11-14T16:40:56.382Z,54.48
2018-11-14T16:43:24.406Z,60.78
2018-11-14T16:45:52.758Z,55.10
2018-11-14T16:48:20.437Z,46.10
2018-11-14T16:50:48.570Z,54.00
2018-11-14T16:53:16.721Z,59.55
2018-11-14T16:55:44.695Z,67.80
2018-11-14T16:58:12.331Z,70.57
2018-11-14T17:00:40.144Z,58.35
2018-11-14T17:03:08.073Z,78.97
2018-11-14T17:05:36.130Z,77.22
2018-11-14T17:08:04.887Z,104.45
2018-11-14T17:10:32.765Z,92.57
2018-11-14T17:13:01.452Z,109.67
2018-11-14T17:15:29.153Z,87.95
2018-11-14T17:17:57.138Z,60.58
2018-11-14T17:20:24.966Z,91.35
2018-11-14T17:22:53.955Z,66.65
2018-11-14T17:25:21.941Z,127.30
2018-11-14T17:27:50.055Z,59.88
2018-11-14T17:30:20.936Z,54.70
2018-11-14T17:32:48.714Z,93.07
2018-11-14T17:35:16.692Z,71.82
2018-11-14T17:37:45.229Z,88.97
2018-11-14T17:40:16.424Z,104.40
2018-11-14T17:42:44.976Z,70.92
2018-11-14T17:45:18.865Z,62.67
2018-11-14T17:47:47.140Z,79.47
2018-11-14T17:50:23.911Z,110.22
2018-11-14T17:52:52.524Z,89.05
2018-11-14T17:55:21.400Z,82.17
2018-11-14T17:57:49.695Z,117.15
2018-11-14T18:00:19.831Z,61.00
2018-11-14T18:02:47.967Z,76.15
2018-11-14T18:05:21.165Z,60.45
2018-11-14T18:07:49.829Z,94.45
2018-11-14T18:10:19.281Z,63.75
2018-11-14T18:12:48.836Z,74.00
2018-11-14T18:15:17.267Z,65.25
2018-11-14T18:17:45.404Z,75.57
2018-11-14T18:20:14.538Z,71.07
2018-11-14T18:22:42.965Z,76.00
2018-11-14T18:25:11.500Z,94.22
2018-11-14T18:27:39.901Z,82.37
2018-11-14T18:30:13.577Z,76.80
2018-11-14T18:32:41.330Z,110.22
2018-11-14T18:35:11.904Z,68.87
2018-11-14T18:37:40.844Z,53.92
2018-11-14T18:40:11.531Z,141.47
2018-11-14T18:42:39.884Z,49.50
2018-11-14T18:45:14.084Z,72.45
2018-11-14T18:47:42.307Z,50.75
2018-11-14T18:50:11.380Z,78.00
2018-11-14T18:52:39.319Z,69.95
2018-11-14T18:55:09.274Z,80.42
2018-11-14T18:57:37.361Z,68.70
2018-11-14T19:00:07.858Z,71.47
2018-11-14T19:02:35.592Z,59.58
2018-11-14T19:05:03.753Z,43.70
2018-11-14T19:07:32.262Z,64.20
2018-11-14T19:10:00.060Z,62.98
2018-11-14T19:12:27.829Z,64.22
2018-11-14T19:14:56.011Z,44.65
2018-11-14T19:17:24.368Z,42.73
2018-11-14T19:19:52.138Z,48.85
2018-11-14T19:22:20.827Z,40.52
2018-11-14T19:24:48.856Z,40.55
2018-11-14T19:27:16.803Z,41.25
2018-11-14T19:29:44.956Z,48.00
2018-11-14T19:32:12.752Z,37.03
2018-11-14T19:34:40.663Z,44.27
2018-11-14T19:37:09.789Z,39.35
2018-11-14T19:39:37.526Z,45.65
2018-11-14T19:42:05.971Z,43.45
2018-11-14T19:44:35.187Z,40.83
2018-11-14T19:47:03.362Z,38.33
2018-11-14T19:49:31.472Z,33.98
2018-11-14T19:52:00.188Z,38.15
2018-11-14T19:54:28.313Z,36.35
2018-11-14T19:56:56.129Z,33.05
2018-11-14T19:59:23.829Z,37.58
2018-11-14T20:01:52.532Z,35.08
2018-11-14T20:04:20.748Z,38.15
2018-11-14T20:06:48.547Z,31.73
2018-11-14T20:09:16.316Z,33.30
2018-11-14T20:11:45.437Z,37.42
2018-11-14T20:14:13.158Z,39.63
2018-11-14T20:16:40.913Z,35.03
2018-11-14T20:19:08.831Z,36.63
2018-11-14T20:21:36.599Z,40.52
2018-11-14T20:24:04.723Z,44.73
2018-11-14T20:26:33.674Z,61.33
2018-11-14T20:29:02.065Z,40.55
2018-11-14T20:31:30.495Z,38.50
2018-11-14T20:33:58.619Z,44.60
2018-11-14T20:36:26.495Z,41.77
2018-11-14T20:38:54.190Z,43.60
2018-11-14T20:41:22.062Z,50.25
2018-11-14T20:43:49.766Z,42.85
2018-11-14T20:46:18.080Z,45.95
2018-11-14T20:48:46.556Z,44.80
2018-11-14T20:51:14.477Z,38.00
2018-11-14T20:53:43.671Z,41.33
2018-11-14T20:56:11.619Z,44.45
2018-11-14T20:58:40.566Z,41.15
2018-11-14T21:01:08.341Z,43.58
2018-11-14T21:03:36.852Z,43.83
2018-11-14T21:06:05.128Z,40.85
2018-11-14T21:08:32.845Z,44.50
2018-11-14T21:11:00.830Z,43.58
2018-11-14T21:13:29.194Z,38.83
2018-11-14T21:15:57.151Z,45.65
2018-11-14T21:18:25.550Z,39.90
2018-11-14T21:20:53.913Z,40.45
2018-11-14T21:23:22.228Z,39.10
2018-11-14T21:25:50.729Z,48.63
2018-11-14T21:28:18.681Z,45.05
2018-11-14T21:30:46.413Z,46.60
2018-11-14T21:33:14.801Z,42.73
2018-11-14T21:35:42.510Z,41.20
2018-11-14T21:38:10.637Z,40.70
2018-11-14T21:40:38.477Z,40.35
2018-11-14T21:43:07.085Z,37.00
2018-11-14T21:45:34.904Z,36.42
2018-11-14T21:48:08.381Z,37.17
2018-11-14T21:50:36.646Z,37.55
2018-11-14T21:53:04.658Z,37.17
2018-11-14T21:55:32.433Z,34.48
2018-11-14T21:58:00.444Z,38.20
2018-11-14T22:00:31.778Z,42.17
2018-11-14T22:02:59.581Z,42.93
2018-11-14T22:05:27.395Z,36.23
2018-11-14T22:07:55.818Z,41.10
2018-11-14T22:10:24.460Z,43.63
2018-11-14T22:12:52.444Z,37.67
2018-11-14T22:15:21.550Z,44.70
2018-11-14T22:17:49.538Z,39.20
2018-11-14T22:20:19.412Z,41.55
2018-11-14T22:22:47.505Z,34.75
2018-11-14T22:25:17.138Z,41.42
2018-11-14T22:27:45.103Z,33.98
2018-11-14T22:30:15.390Z,35.90
2018-11-14T22:32:43.099Z,37.63
2018-11-14T22:35:12.767Z,39.35
2018-11-14T22:37:40.745Z,34.80
2018-11-14T22:40:10.783Z,39.60
2018-11-14T22:42:38.517Z,35.20
2018-11-14T22:45:09.093Z,34.67
2018-11-14T22:47:37.053Z,37.90
2018-11-14T22:50:06.376Z,41.90
2018-11-14T22:52:34.218Z,38.63
2018-11-14T22:55:01.896Z,37.50
2018-11-14T22:57:30.337Z,37.00
2018-11-14T22:59:58.427Z,34.33
2018-11-14T23:02:26.881Z,34.45
2018-11-14T23:04:54.545Z,36.40
2018-11-14T23:07:22.379Z,36.80
2018-11-14T23:09:50.213Z,39.80
2018-11-14T23:12:17.866Z,34.73
2018-11-14T23:14:45.652Z,37.65
2018-11-14T23:17:13.402Z,38.60
2018-11-14T23:19:41.538Z,33.42
2018-11-14T23:22:10.438Z,39.08
2018-11-14T23:24:38.122Z,40.60
2018-11-14T23:27:06.310Z,36.68
2018-11-14T23:29:34.019Z,36.00
2018-11-14T23:32:03.248Z,34.83
2018-11-14T23:34:31.257Z,38.00
2018-11-14T23:36:58.994Z,38.40
2018-11-14T23:39:26.882Z,29.23
2018-11-14T23:41:54.527Z,36.60
2018-11-14T23:44:23.625Z,32.53
2018-11-14T23:46:51.481Z,31.20
2018-11-14T23:49:19.111Z,33.60
2018-11-14T23:51:47.501Z,33.38
2018-11-14T23:54:15.354Z,37.83
2018-11-14T23:56:42.956Z,32.88
2018-11-14T23:59:11.370Z,36.83
